createdAt,value
2023-01-19T00:01:59.224Z,13.05
2023-01-19T00:04:27.352Z,13.06
2023-01-19T00:06:56.835Z,13.00
2023-01-19T00:09:25.023Z,13.03
2023-01-19T00:11:53.088Z,13.06
2023-01-19T00:14:21.198Z,13.08
2023-01-19T00:16:49.407Z,13.00
2023-01-19T00:19:17.743Z,12.93
2023-01-19T00:21:45.914Z,12.89
2023-01-19T00:24:15.652Z,12.87
2023-01-19T00:26:43.808Z,12.69
2023-01-19T00:29:12.851Z,12.55
2023-01-19T00:31:41.031Z,12.49
2023-01-19T00:34:09.504Z,12.66
2023-01-19T00:36:37.714Z,12.87
2023-01-19T00:39:05.983Z,12.90
2023-01-19T00:41:53.214Z,12.91
2023-01-19T00:44:21.262Z,12.90
2023-01-19T00:46:49.295Z,12.91
2023-01-19T00:49:17.633Z,12.92
2023-01-19T00:51:45.854Z,12.96
2023-01-19T00:54:13.984Z,12.88
2023-01-19T00:56:43.463Z,12.77
2023-01-19T00:59:12.401Z,12.34
2023-01-19T01:01:46.130Z,12.14
2023-01-19T01:04:15.017Z,12.20
2023-01-19T01:06:43.122Z,12.41
2023-01-19T01:09:13.060Z,12.44
2023-01-19T01:11:41.402Z,12.49
2023-01-19T01:14:11.925Z,12.51
2023-01-19T01:16:40.209Z,12.74
2023-01-19T01:19:08.543Z,12.80
2023-01-19T01:21:37.379Z,12.90
2023-01-19T01:24:05.894Z,13.05
2023-01-19T01:26:34.114Z,13.02
2023-01-19T01:29:02.901Z,13.09
2023-01-19T01:31:32.447Z,13.00
2023-01-19T01:34:00.552Z,12.89
2023-01-19T01:36:31.860Z,12.95
2023-01-19T01:39:00.143Z,12.90
2023-01-19T01:41:28.563Z,12.92
2023-01-19T01:44:00.137Z,12.93
2023-01-19T01:46:31.239Z,12.89
2023-01-19T01:49:06.712Z,12.90
2023-01-19T01:51:38.100Z,12.95
2023-01-19T01:54:14.861Z,12.98
2023-01-19T01:56:45.596Z,13.02
2023-01-19T01:59:26.038Z,12.98
2023-01-19T02:05:05.456Z,13.00
2023-01-19T02:07:55.804Z,12.99
2023-01-19T02:10:41.933Z,13.08
2023-01-19T02:13:19.751Z,13.09
2023-01-19T02:15:49.097Z,13.07
2023-01-19T02:18:17.735Z,13.03
2023-01-19T02:20:53.896Z,12.94
2023-01-19T02:23:33.870Z,12.92
2023-01-19T02:26:02.922Z,13.01
2023-01-19T02:28:32.133Z,13.12
2023-01-19T02:31:00.910Z,13.10
2023-01-19T02:33:29.600Z,13.04
2023-01-19T02:35:58.556Z,12.96
2023-01-19T02:38:29.072Z,12.95
2023-01-19T02:41:01.772Z,12.90
2023-01-19T02:43:32.109Z,12.97
2023-01-19T02:46:00.607Z,12.96
2023-01-19T02:48:28.776Z,13.03
2023-01-19T02:51:04.355Z,13.01
2023-01-19T02:54:02.079Z,12.99
2023-01-19T02:56:40.968Z,12.97
2023-01-19T02:59:18.181Z,13.07
2023-01-19T03:02:00.307Z,13.05
2023-01-19T03:04:38.878Z,13.00
2023-01-19T03:07:10.649Z,13.06
2023-01-19T03:09:48.822Z,13.05
2023-01-19T03:12:27.125Z,13.02
2023-01-19T03:15:02.190Z,13.18
2023-01-19T03:17:33.662Z,13.16
2023-01-19T03:20:03.902Z,13.16
2023-01-19T03:22:33.619Z,13.11
2023-01-19T03:25:04.474Z,13.07
2023-01-19T03:27:40.991Z,13.14
2023-01-19T03:30:12.611Z,13.14
2023-01-19T03:32:45.929Z,13.15
2023-01-19T03:35:17.628Z,13.19
2023-01-19T03:37:49.108Z,13.20
2023-01-19T03:40:18.128Z,13.17
2023-01-19T03:42:50.527Z,13.15
2023-01-19T03:45:19.594Z,13.16
2023-01-19T03:47:47.817Z,13.19
2023-01-19T03:50:27.233Z,13.17
2023-01-19T03:53:03.518Z,13.18
2023-01-19T03:55:31.619Z,13.14
2023-01-19T03:58:01.112Z,13.20
2023-01-19T04:00:30.760Z,13.26
2023-01-19T04:02:59.354Z,13.29
2023-01-19T04:05:27.614Z,13.32
2023-01-19T04:07:55.781Z,13.25
2023-01-19T04:10:23.979Z,13.25
2023-01-19T04:12:59.597Z,13.21
2023-01-19T04:15:29.951Z,13.27
2023-01-19T04:17:59.018Z,13.26
2023-01-19T04:20:28.336Z,13.25
2023-01-19T04:23:00.062Z,13.28
2023-01-19T04:25:28.548Z,13.30
2023-01-19T04:27:58.297Z,13.36
2023-01-19T04:30:27.461Z,13.44
2023-01-19T04:32:57.180Z,13.32
2023-01-19T04:35:25.331Z,13.41
2023-01-19T04:37:53.424Z,13.40
2023-01-19T04:40:21.785Z,13.36
2023-01-19T04:42:50.262Z,13.33
2023-01-19T04:45:18.674Z,13.28
2023-01-19T04:47:46.810Z,13.29
2023-01-19T04:50:17.767Z,13.27
2023-01-19T04:52:45.948Z,13.23
2023-01-19T04:55:14.324Z,13.15
2023-01-19T04:57:42.439Z,13.09
2023-01-19T05:00:12.066Z,13.11
2023-01-19T05:02:42.707Z,13.14
2023-01-19T05:05:11.049Z,13.14
2023-01-19T05:07:40.647Z,13.15
2023-01-19T05:10:09.879Z,13.13
2023-01-19T05:12:37.977Z,13.07
2023-01-19T05:15:09.711Z,13.05
2023-01-19T05:17:37.965Z,13.10
2023-01-19T05:20:07.042Z,13.10
2023-01-19T05:22:35.191Z,13.03
2023-01-19T05:25:04.891Z,12.99
2023-01-19T05:27:33.005Z,12.93
2023-01-19T05:30:01.186Z,12.92
2023-01-19T05:32:29.766Z,12.89
2023-01-19T05:34:57.869Z,12.87
2023-01-19T05:37:26.087Z,12.83
2023-01-19T05:39:54.890Z,12.67
2023-01-19T05:42:24.373Z,12.48
2023-01-19T05:44:52.907Z,11.60
2023-01-19T05:47:21.027Z,11.32
2023-01-19T05:49:49.179Z,11.00
2023-01-19T05:52:17.236Z,10.86
2023-01-19T05:54:45.325Z,10.88
2023-01-19T05:57:13.852Z,10.90
2023-01-19T05:59:43.361Z,10.96
2023-01-19T06:02:11.692Z,11.04
2023-01-19T06:04:39.911Z,11.11
2023-01-19T06:07:08.287Z,11.12
2023-01-19T06:09:36.495Z,11.21
2023-01-19T06:12:04.967Z,11.33
2023-01-19T06:14:33.718Z,11.56
2023-01-19T06:17:03.287Z,11.88
2023-01-19T06:19:31.480Z,12.12
2023-01-19T06:21:59.760Z,12.27
2023-01-19T06:24:28.065Z,12.34
2023-01-19T06:26:56.432Z,12.38
2023-01-19T06:29:25.478Z,12.44
2023-01-19T06:31:53.973Z,12.45
2023-01-19T06:34:27.135Z,12.47
2023-01-19T06:36:55.360Z,12.48
2023-01-19T06:39:23.655Z,12.56
2023-01-19T06:41:51.982Z,12.55
2023-01-19T06:44:20.169Z,12.36
2023-01-19T06:46:49.027Z,12.23
2023-01-19T06:49:17.506Z,12.27
2023-01-19T06:51:47.019Z,12.30
2023-01-19T06:54:19.007Z,12.19
2023-01-19T06:56:50.749Z,12.32
2023-01-19T06:59:20.000Z,12.38
2023-01-19T07:01:48.554Z,12.38
2023-01-19T07:04:17.081Z,12.44
2023-01-19T07:06:46.860Z,12.25
2023-01-19T07:09:17.228Z,12.23
2023-01-19T07:11:47.379Z,12.28
2023-01-19T07:14:16.785Z,12.28
2023-01-19T07:16:45.241Z,12.38
2023-01-19T07:19:14.302Z,12.45
2023-01-19T07:21:42.989Z,12.50
2023-01-19T07:24:12.617Z,12.58
2023-01-19T07:26:40.879Z,12.76
2023-01-19T07:29:09.166Z,12.84
2023-01-19T07:31:39.712Z,12.88
2023-01-19T07:34:07.993Z,12.86
2023-01-19T07:36:36.709Z,13.00
2023-01-19T07:39:05.149Z,13.06
2023-01-19T07:41:35.897Z,13.08
2023-01-19T07:44:04.221Z,13.12
2023-01-19T07:46:32.702Z,13.06
2023-01-19T07:49:00.846Z,13.17
2023-01-19T07:51:28.989Z,13.28
2023-01-19T07:53:57.129Z,13.26
2023-01-19T07:56:27.927Z,13.40
2023-01-19T07:58:57.926Z,13.39
2023-01-19T08:01:26.342Z,13.38
2023-01-19T08:03:55.183Z,13.42
2023-01-19T08:06:25.262Z,13.46
2023-01-19T08:08:53.571Z,13.51
2023-01-19T08:11:21.840Z,13.55
2023-01-19T08:13:50.203Z,13.40
2023-01-19T08:16:20.316Z,13.40
2023-01-19T08:18:48.746Z,13.46
2023-01-19T08:21:17.275Z,13.36
2023-01-19T08:23:46.036Z,13.35
2023-01-19T08:26:21.392Z,13.45
2023-01-19T08:28:49.673Z,13.23
2023-01-19T08:31:21.792Z,13.21
2023-01-19T08:33:51.687Z,13.26
2023-01-19T08:36:20.446Z,13.32
2023-01-19T08:38:49.108Z,13.38
2023-01-19T08:41:17.715Z,13.31
2023-01-19T08:43:46.405Z,13.39
2023-01-19T08:46:17.570Z,13.52
2023-01-19T08:48:48.253Z,13.50
2023-01-19T08:51:16.619Z,13.64
2023-01-19T08:53:45.254Z,13.88
2023-01-19T08:56:14.068Z,13.94
2023-01-19T08:58:43.984Z,14.02
2023-01-19T09:01:14.046Z,14.01
2023-01-19T09:03:42.464Z,14.03
2023-01-19T09:06:14.939Z,14.06
2023-01-19T09:08:43.703Z,14.06
2023-01-19T09:11:13.361Z,14.03
2023-01-19T09:13:42.304Z,13.95
2023-01-19T09:16:12.792Z,13.97
2023-01-19T09:18:41.352Z,14.07
2023-01-19T09:21:11.526Z,14.03
2023-01-19T09:23:40.350Z,14.13
2023-01-19T09:26:08.675Z,14.14
2023-01-19T09:28:37.103Z,14.18
2023-01-19T09:31:09.638Z,14.19
2023-01-19T09:33:38.320Z,14.44
2023-01-19T09:36:07.464Z,14.39
2023-01-19T09:38:37.153Z,14.40
2023-01-19T09:41:07.297Z,14.45
2023-01-19T09:43:40.240Z,14.55
2023-01-19T09:46:14.473Z,14.64
2023-01-19T09:48:50.739Z,14.61
2023-01-19T09:51:24.033Z,14.66
2023-01-19T09:53:58.629Z,14.76
2023-01-19T09:56:29.682Z,14.80
2023-01-19T09:58:58.353Z,15.00
2023-01-19T10:01:42.124Z,15.12
2023-01-19T10:04:28.917Z,15.22
2023-01-19T10:07:08.012Z,15.38
2023-01-19T10:09:47.880Z,15.54
2023-01-19T10:12:26.438Z,15.67
2023-01-19T10:15:04.040Z,15.80
2023-01-19T10:17:43.392Z,15.80
2023-01-19T10:20:18.269Z,15.84
2023-01-19T10:22:50.597Z,15.78
2023-01-19T10:25:24.459Z,15.81
2023-01-19T10:27:53.077Z,15.68
2023-01-19T10:30:24.561Z,15.62
2023-01-19T10:32:53.170Z,15.57
2023-01-19T10:35:25.226Z,15.49
2023-01-19T10:37:56.445Z,15.85
2023-01-19T10:40:34.144Z,16.30
2023-01-19T10:43:02.622Z,16.52
2023-01-19T10:45:32.585Z,16.61
2023-01-19T10:48:06.907Z,16.71
2023-01-19T10:50:39.840Z,16.65
2023-01-19T10:53:19.618Z,16.52
2023-01-19T10:55:49.575Z,16.54
2023-01-19T10:58:30.441Z,16.51
2023-01-19T11:01:14.653Z,16.63
2023-01-19T11:03:42.912Z,16.74
2023-01-19T11:06:29.413Z,16.83
2023-01-19T11:09:12.493Z,16.93
2023-01-19T11:12:00.642Z,16.96
2023-01-19T11:14:32.670Z,16.92
2023-01-19T11:17:00.745Z,16.82
2023-01-19T11:19:31.396Z,16.67
2023-01-19T11:22:21.906Z,16.73
2023-01-19T11:24:50.786Z,16.69
2023-01-19T11:27:22.140Z,16.77
2023-01-19T11:29:55.259Z,16.76
2023-01-19T11:32:26.384Z,16.73
2023-01-19T11:34:54.914Z,16.66
2023-01-19T11:37:32.021Z,16.68
2023-01-19T11:40:04.271Z,16.69
2023-01-19T11:42:37.273Z,16.79
2023-01-19T11:45:14.283Z,16.74
2023-01-19T11:47:45.073Z,16.63
2023-01-19T11:50:24.978Z,16.80
2023-01-19T11:52:56.803Z,16.86
2023-01-19T11:55:34.467Z,16.94
2023-01-19T11:58:05.595Z,17.22
2023-01-19T12:00:37.815Z,17.32
2023-01-19T12:03:13.967Z,17.32
2023-01-19T12:05:46.673Z,17.31
2023-01-19T12:08:19.675Z,17.00
2023-01-19T12:10:50.406Z,16.95
2023-01-19T12:13:25.955Z,16.73
2023-01-19T12:15:59.014Z,16.76
2023-01-19T12:18:31.540Z,16.67
2023-01-19T12:21:02.253Z,16.54
2023-01-19T12:23:46.507Z,16.48
2023-01-19T12:26:34.852Z,16.30
2023-01-19T12:29:12.603Z,16.16
2023-01-19T12:31:42.979Z,16.14
2023-01-19T12:34:40.911Z,16.33
2023-01-19T12:37:32.863Z,16.36
2023-01-19T12:40:02.961Z,16.23
2023-01-19T12:42:31.548Z,16.28
2023-01-19T12:45:09.829Z,16.28
2023-01-19T12:47:38.591Z,16.31
2023-01-19T12:50:14.504Z,16.26
2023-01-19T12:52:51.699Z,16.24
2023-01-19T12:55:24.221Z,16.36
2023-01-19T12:57:58.881Z,16.77
2023-01-19T13:00:46.897Z,17.10
2023-01-19T13:03:58.415Z,17.14
2023-01-19T13:06:56.073Z,16.92
2023-01-19T13:09:30.647Z,16.94
2023-01-19T13:12:21.558Z,17.16
2023-01-19T13:14:50.860Z,17.19
2023-01-19T13:17:27.517Z,17.20
2023-01-19T13:20:05.226Z,17.12
2023-01-19T13:23:20.892Z,17.06
2023-01-19T13:25:52.952Z,17.04
2023-01-19T13:28:31.819Z,17.11
2023-01-19T13:31:02.797Z,17.08
2023-01-19T13:33:41.200Z,17.09
2023-01-19T13:36:32.470Z,16.95
2023-01-19T13:39:04.695Z,16.79
2023-01-19T13:41:37.496Z,16.80
2023-01-19T13:44:11.024Z,16.90
2023-01-19T13:46:39.751Z,16.82
2023-01-19T13:49:18.863Z,16.81
2023-01-19T13:51:49.441Z,16.77
2023-01-19T13:54:18.411Z,16.75
2023-01-19T13:56:50.126Z,16.64
2023-01-19T13:59:18.336Z,16.51
2023-01-19T14:01:47.757Z,16.45
2023-01-19T14:04:32.288Z,16.43
2023-01-19T14:07:03.724Z,16.29
2023-01-19T14:09:32.064Z,16.26
2023-01-19T14:12:17.672Z,16.28
2023-01-19T14:14:48.412Z,16.28
2023-01-19T14:17:23.636Z,16.26
2023-01-19T14:19:54.853Z,16.20
2023-01-19T14:22:23.134Z,16.21
2023-01-19T14:24:51.688Z,16.19
2023-01-19T14:27:22.843Z,16.09
2023-01-19T14:29:54.797Z,16.07
2023-01-19T14:32:24.724Z,16.05
2023-01-19T14:35:13.554Z,15.90
2023-01-19T14:37:48.756Z,15.93
2023-01-19T14:40:20.682Z,15.91
2023-01-19T14:42:54.398Z,15.83
2023-01-19T14:45:25.095Z,15.86
2023-01-19T14:47:59.502Z,15.82
2023-01-19T14:50:31.727Z,15.84
2023-01-19T14:53:03.633Z,15.82
2023-01-19T14:55:39.067Z,15.68
2023-01-19T14:58:12.401Z,15.59
2023-01-19T15:00:40.916Z,15.49
2023-01-19T15:03:10.076Z,15.45
2023-01-19T15:05:40.219Z,15.41
2023-01-19T15:08:09.025Z,15.32
2023-01-19T15:10:37.614Z,15.29
2023-01-19T15:13:05.858Z,15.18
2023-01-19T15:15:35.660Z,15.25
2023-01-19T15:18:05.730Z,15.19
2023-01-19T15:20:33.921Z,15.14
2023-01-19T15:23:03.533Z,15.01
2023-01-19T15:25:31.780Z,15.01
2023-01-19T15:28:00.748Z,15.09
2023-01-19T15:30:31.192Z,14.96
2023-01-19T15:33:00.110Z,14.90
2023-01-19T15:35:28.345Z,14.91
2023-01-19T15:37:56.479Z,14.84
2023-01-19T15:40:27.396Z,14.72
2023-01-19T15:42:55.550Z,14.77
2023-01-19T15:45:37.953Z,14.80
2023-01-19T15:48:08.720Z,14.79
2023-01-19T15:50:39.386Z,14.80
2023-01-19T15:53:08.053Z,14.78
2023-01-19T15:55:37.847Z,14.79
2023-01-19T15:58:06.109Z,14.79
2023-01-19T16:00:35.423Z,14.78
2023-01-19T16:03:04.530Z,14.76
2023-01-19T16:05:42.523Z,14.70
2023-01-19T16:08:12.046Z,14.70
2023-01-19T16:10:42.176Z,14.83
2023-01-19T16:13:11.691Z,14.82
2023-01-19T16:15:42.298Z,14.89
2023-01-19T16:18:10.431Z,14.92
2023-01-19T16:20:38.559Z,14.93
2023-01-19T16:23:14.892Z,14.94
2023-01-19T16:25:45.649Z,15.02
2023-01-19T16:28:13.736Z,14.97
2023-01-19T16:30:41.914Z,14.96
2023-01-19T16:33:13.542Z,14.97
2023-01-19T16:35:41.806Z,15.00
2023-01-19T16:38:10.435Z,15.02
2023-01-19T16:40:38.829Z,15.00
2023-01-19T16:43:08.439Z,14.96
2023-01-19T16:45:37.988Z,14.97
2023-01-19T16:48:06.593Z,14.96
2023-01-19T16:50:34.703Z,14.99
2023-01-19T16:53:02.879Z,14.93
2023-01-19T16:55:31.409Z,14.93
2023-01-19T16:57:59.572Z,14.96
2023-01-19T17:00:29.083Z,14.95
2023-01-19T17:02:57.285Z,14.89
2023-01-19T17:05:25.463Z,14.86
2023-01-19T17:07:53.841Z,14.93
2023-01-19T17:10:22.280Z,14.88
2023-01-19T17:12:50.406Z,14.85
2023-01-19T17:15:18.877Z,14.80
2023-01-19T17:17:48.358Z,14.70
2023-01-19T17:20:17.161Z,14.76
2023-01-19T17:22:47.361Z,14.86
2023-01-19T17:25:15.712Z,14.80
2023-01-19T17:27:43.842Z,14.80
2023-01-19T17:30:13.137Z,14.78
2023-01-19T17:32:42.692Z,14.76
2023-01-19T17:35:12.371Z,14.50
2023-01-19T17:37:56.971Z,14.05
2023-01-19T17:40:26.208Z,13.79
2023-01-19T17:42:54.327Z,13.57
2023-01-19T17:45:22.472Z,13.34
2023-01-19T17:47:50.742Z,13.18
2023-01-19T17:50:20.521Z,13.17
2023-01-19T17:52:48.845Z,13.07
2023-01-19T17:55:18.506Z,13.07
2023-01-19T17:57:46.709Z,13.04
2023-01-19T18:00:16.374Z,12.97
2023-01-19T18:02:44.612Z,12.93
2023-01-19T18:05:14.332Z,12.88
2023-01-19T18:07:43.884Z,12.80
2023-01-19T18:10:13.083Z,12.82
2023-01-19T18:12:41.928Z,12.84
2023-01-19T18:15:11.645Z,12.82
2023-01-19T18:17:39.741Z,12.86
2023-01-19T18:20:08.562Z,12.84
2023-01-19T18:22:36.805Z,12.90
2023-01-19T18:25:07.058Z,12.91
2023-01-19T18:27:35.322Z,12.92
2023-01-19T18:30:03.503Z,13.06
2023-01-19T18:32:31.659Z,13.20
2023-01-19T18:34:59.834Z,13.20
2023-01-19T18:37:28.170Z,13.20
2023-01-19T18:39:59.792Z,13.18
2023-01-19T18:42:29.918Z,13.03
2023-01-19T18:44:58.215Z,12.94
2023-01-19T18:47:26.285Z,12.99
2023-01-19T18:49:54.414Z,13.02
2023-01-19T18:52:22.563Z,13.01
2023-01-19T18:54:50.771Z,12.93
2023-01-19T18:57:18.954Z,13.04
2023-01-19T18:59:48.997Z,13.02
2023-01-19T19:02:17.227Z,13.06
2023-01-19T19:04:45.399Z,13.30
2023-01-19T19:07:13.518Z,13.21
2023-01-19T19:09:41.594Z,13.12
2023-01-19T19:12:10.066Z,13.03
2023-01-19T19:14:38.328Z,12.90
2023-01-19T19:17:07.863Z,12.91
2023-01-19T19:19:36.211Z,13.12
2023-01-19T19:22:04.754Z,13.31
2023-01-19T19:24:33.018Z,13.29
2023-01-19T19:27:01.297Z,13.20
2023-01-19T19:29:29.635Z,13.16
2023-01-19T19:31:57.921Z,13.00
2023-01-19T19:34:28.010Z,13.15
2023-01-19T19:36:56.118Z,13.02
2023-01-19T19:39:24.286Z,12.91
2023-01-19T19:41:52.453Z,12.85
2023-01-19T19:44:20.511Z,12.80
2023-01-19T19:46:48.682Z,12.75
2023-01-19T19:49:21.444Z,12.83
2023-01-19T19:51:51.167Z,12.81
2023-01-19T19:54:19.420Z,12.77
2023-01-19T19:56:50.417Z,12.66
2023-01-19T19:59:19.020Z,12.67
2023-01-19T20:01:48.599Z,12.77
2023-01-19T20:04:20.129Z,12.81
2023-01-19T20:06:50.301Z,12.94
2023-01-19T20:09:18.659Z,13.12
2023-01-19T20:11:49.092Z,13.21
2023-01-19T20:14:17.514Z,13.21
2023-01-19T20:16:46.213Z,13.23
2023-01-19T20:19:14.560Z,13.33
2023-01-19T20:21:43.769Z,13.28
2023-01-19T20:24:16.154Z,13.36
2023-01-19T20:26:46.832Z,13.13
2023-01-19T20:29:15.351Z,12.90
2023-01-19T20:31:46.113Z,12.80
2023-01-19T20:34:17.516Z,12.75
2023-01-19T20:36:49.653Z,12.84
2023-01-19T20:39:19.996Z,12.83
2023-01-19T20:41:50.983Z,12.72
2023-01-19T20:44:22.431Z,12.70
2023-01-19T20:46:51.224Z,12.71
2023-01-19T20:49:19.428Z,12.70
2023-01-19T20:51:47.633Z,12.66
2023-01-19T20:54:19.232Z,12.62
2023-01-19T20:56:47.466Z,12.61
2023-01-19T20:59:16.026Z,12.62
2023-01-19T21:01:44.728Z,12.56
2023-01-19T21:04:13.752Z,12.44
2023-01-19T21:06:42.830Z,12.50
2023-01-19T21:09:11.786Z,12.44
2023-01-19T21:11:41.828Z,12.43
2023-01-19T21:14:10.189Z,12.48
2023-01-19T21:16:39.046Z,12.57
2023-01-19T21:19:07.280Z,12.69
2023-01-19T21:21:35.508Z,12.66
2023-01-19T21:24:05.020Z,12.68
2023-01-19T21:26:33.568Z,12.82
2023-01-19T21:29:04.204Z,12.86
2023-01-19T21:31:32.773Z,13.00
2023-01-19T21:34:06.246Z,13.13
2023-01-19T21:36:34.377Z,13.11
2023-01-19T21:39:03.703Z,13.14
2023-01-19T21:41:32.143Z,13.11
2023-01-19T21:44:02.819Z,13.08
2023-01-19T21:46:33.219Z,13.09
2023-01-19T21:49:03.366Z,13.08
2023-01-19T21:51:33.732Z,13.02
2023-01-19T21:54:02.300Z,12.99
2023-01-19T21:56:31.082Z,13.17
2023-01-19T21:59:02.320Z,13.16
2023-01-19T22:01:32.762Z,13.20
2023-01-19T22:04:01.366Z,13.32
2023-01-19T22:06:30.004Z,13.30
2023-01-19T22:09:00.858Z,13.14
2023-01-19T22:11:30.161Z,13.01
2023-01-19T22:13:59.764Z,13.01
2023-01-19T22:16:28.600Z,12.94
2023-01-19T22:19:01.276Z,12.92
2023-01-19T22:21:31.467Z,12.93
2023-01-19T22:24:01.076Z,12.89
2023-01-19T22:26:31.025Z,12.91
2023-01-19T22:29:00.774Z,12.88
2023-01-19T22:31:30.693Z,12.83
2023-01-19T22:34:00.796Z,12.83
2023-01-19T22:36:31.039Z,12.72
2023-01-19T22:39:00.934Z,12.71
2023-01-19T22:41:30.704Z,12.64
2023-01-19T22:44:00.818Z,12.59
2023-01-19T22:46:31.224Z,12.58
2023-01-19T22:49:01.487Z,12.55
2023-01-19T22:51:30.745Z,12.55
2023-01-19T22:53:59.359Z,12.54
2023-01-19T22:56:29.024Z,12.44
2023-01-19T22:58:57.566Z,12.25
2023-01-19T23:01:27.272Z,12.03
2023-01-19T23:03:56.295Z,11.92
2023-01-19T23:06:27.810Z,11.84
2023-01-19T23:08:57.683Z,11.72
2023-01-19T23:11:27.819Z,11.58
2023-01-19T23:13:55.972Z,11.53
2023-01-19T23:16:24.222Z,11.47
2023-01-19T23:18:54.852Z,11.41
2023-01-19T23:21:26.401Z,11.41
2023-01-19T23:23:56.067Z,11.43
2023-01-19T23:26:25.159Z,11.50
2023-01-19T23:28:56.189Z,11.39
2023-01-19T23:31:26.320Z,11.43
2023-01-19T23:33:56.563Z,11.41
2023-01-19T23:36:28.117Z,11.47
2023-01-19T23:38:57.854Z,11.45
2023-01-19T23:41:28.061Z,11.46
2023-01-19T23:43:56.371Z,11.46
2023-01-19T23:46:24.721Z,11.50
2023-01-19T23:48:52.898Z,11.61
2023-01-19T23:51:22.650Z,11.66
2023-01-19T23:53:52.898Z,11.72
2023-01-19T23:56:23.174Z,11.85
2023-01-19T23:58:55.040Z,11.85
